Key West Naval Air Station, Florida
Current Conditions -  °F | °C
As of 8:53 AM on Saturday 22 Nov 2014 (Local Time) from KNQX Reporting Station
Broken Clouds Broken Clouds  
Wind Chill: 73°   Ceiling: 4000
Heat Index: 73°   Visibility: 10mi
Dew Point: 71°   Wind: 15mph
Humidity: 93%   Direction: 80°E
Pressure: 30.12"   Gusts: NA
Location:  24.5796°N, 81.6849°W
Report Text: KNQX 221353Z 08013KT 10SM FEW025 BKN040 BKN070 23/22 A3012 RMK AO2 SLP199 T02280217 $
Loading
Personal Weather Stations






























Interactive Weather Map New forecast layout! Learn more

10-Day Weather Forecast

Advertisements
Track Severe Weather on mobile